Deep River, Iowa
Current Conditions -  °F | °C
As of 1:15 PM on Tuesday 21 Oct 2014 (Local Time) from KGGI Reporting Station
Clear Clear  
Wind Chill: 60°   Ceiling: Unl
Heat Index: 60°   Visibility: 10mi
Dew Point: 41°   Wind: 7mph
Humidity: 51%   Direction: 80°E
Pressure: 30.17"   Gusts: NA
Location:  41.58°N, 92.37°W
Report Text: KGGI 211815Z AUTO 08006KT 10SM CLR 15/05 A3017 RMK AO2 T01540052
Loading
Personal Weather Stations






























Interactive Weather Map
Tropical Storm Tracking
New forecast layout! Learn more

10-Day Weather Forecast

Advertisements
Track Severe Weather on mobile